Time;durP1;ratioP1;P1;durP2;ratioP2;P2;SDS_P1;SDS_P2;PMS_P1;PMS_P2;Temp;Humidity;BMP_temperature;BMP_pressure;BME280_temperature;BME280_humidity;BME280_pressure;Samples;Min_cycle;Max_cycle;Signal;HPM_P1;HPM_P2
2022/11/06 00:01:16;;;;;;;6.43;3.57;;;14.20;85.20;;;;;;5025613;28;20243;-95
2022/11/06 00:03:54;;;;;;;10.60;4.10;;;14.20;85.30;;;;;;5023182;28;20209;-95
2022/11/06 00:09:09;;;;;;;9.83;4.37;;;14.30;85.40;;;;;;5014453;28;20199;-96
2022/11/06 00:11:39;;;;;;;12.63;4.57;;;14.30;85.50;;;;;;5009238;28;20217;-96
2022/11/06 00:14:15;;;;;;;7.70;3.47;;;14.30;85.60;;;;;;5029832;28;20211;-96
2022/11/06 00:16:46;;;;;;;12.83;4.37;;;14.30;85.40;;;;;;5025892;28;20232;-94
2022/11/06 00:19:19;;;;;;;10.10;3.90;;;14.30;85.20;;;;;;5025481;28;20317;-94
2022/11/06 00:21:50;;;;;;;10.93;5.00;;;14.30;85.20;;;;;;5023773;28;20237;-95
2022/11/06 00:24:18;;;;;;;13.13;5.77;;;14.30;85.10;;;;;;5016304;28;20289;-93
2022/11/06 00:26:49;;;;;;;12.47;5.23;;;14.30;85.00;;;;;;5019996;28;20208;-94
2022/11/06 00:29:17;;;;;;;10.60;4.03;;;14.30;85.50;;;;;;5006094;28;20206;-92
2022/11/06 00:31:50;;;;;;;10.13;4.47;;;14.30;85.20;;;;;;5013419;28;20233;-93
2022/11/06 00:34:37;;;;;;;13.77;5.57;;;14.30;85.20;;;;;;5015640;28;20238;-96
2022/11/06 00:37:12;;;;;;;12.17;4.87;;;14.30;86.00;;;;;;5017084;28;20216;-95
2022/11/06 00:39:42;;;;;;;14.40;5.00;;;14.40;86.00;;;;;;5017379;28;20361;-93
2022/11/06 00:42:24;;;;;;;9.03;3.47;;;14.30;85.20;;;;;;5012534;28;20280;-94
2022/11/06 00:45:01;;;;;;;11.87;5.10;;;14.30;85.00;;;;;;5018826;28;20243;-92
2022/11/06 00:47:30;;;;;;;15.53;5.80;;;14.30;84.90;;;;;;5018125;28;20269;-94
2022/11/06 00:50:02;;;;;;;9.73;4.27;;;14.30;85.10;;;;;;5019404;28;20959;-93
2022/11/06 00:52:31;;;;;;;13.37;5.67;;;14.40;85.30;;;;;;5016787;28;20213;-95
2022/11/06 00:55:05;;;;;;;14.83;5.90;;;14.40;85.20;;;;;;5023356;28;20328;-94
2022/11/06 00:57:37;;;;;;;12.00;5.07;;;14.40;85.10;;;;;;5018466;28;20308;-94
2022/11/06 01:00:07;;;;;;;17.10;5.10;;;14.40;85.30;;;;;;5023197;28;20241;-92
2022/11/06 01:02:36;;;;;;;15.30;5.50;;;14.30;85.00;;;;;;5035021;28;20204;-94
2022/11/06 01:05:08;;;;;;;13.43;5.33;;;14.40;85.10;;;;;;5045923;23;20215;-94
2022/11/06 01:07:37;;;;;;;12.37;5.17;;;14.40;85.40;;;;;;5022115;28;20641;-93
2022/11/06 01:10:06;;;;;;;9.43;4.20;;;14.40;85.30;;;;;;5019049;28;20205;-94
2022/11/06 01:12:37;;;;;;;15.50;5.47;;;14.40;85.60;;;;;;5015960;28;20215;-94
2022/11/06 01:15:06;;;;;;;13.57;5.27;;;14.40;86.10;;;;;;5014555;28;20201;-92
2022/11/06 01:17:37;;;;;;;10.63;4.73;;;14.40;86.30;;;;;;4999233;28;20233;-91
2022/11/06 01:20:07;;;;;;;15.20;4.90;;;14.40;86.60;;;;;;5017064;28;20218;-94
2022/11/06 01:22:35;;;;;;;14.83;6.10;;;14.40;87.00;;;;;;5015777;28;20247;-94
2022/11/06 01:25:02;;;;;;;13.00;5.37;;;14.40;86.80;;;;;;5008443;28;20208;-92
2022/11/06 01:27:30;;;;;;;15.20;5.33;;;14.40;87.00;;;;;;5013757;28;20206;-92
2022/11/06 01:30:05;;;;;;;19.63;6.20;;;14.40;87.10;;;;;;5015404;28;20200;-93
2022/11/06 01:32:39;;;;;;;13.30;5.70;;;14.40;87.30;;;;;;5012112;28;20206;-93
2022/11/06 01:35:16;;;;;;;10.30;4.90;;;14.30;87.10;;;;;;5013928;28;20200;-94
2022/11/06 01:37:44;;;;;;;15.43;5.70;;;14.30;87.00;;;;;;5017057;28;20223;-95
2022/11/06 01:40:29;;;;;;;13.30;5.30;;;14.40;87.00;;;;;;5011970;28;20300;-92
2022/11/06 01:42:59;;;;;;;15.83;5.57;;;14.30;87.50;;;;;;5022790;28;20212;-93
2022/11/06 01:45:40;;;;;;;14.30;6.13;;;14.30;86.90;;;;;;5015996;28;20235;-94
2022/11/06 01:48:10;;;;;;;13.63;5.23;;;14.30;87.60;;;;;;5019298;28;20215;-96
2022/11/06 01:50:43;;;;;;;18.80;6.80;;;14.30;87.30;;;;;;5013655;28;20203;-92
2022/11/06 01:53:12;;;;;;;14.70;6.30;;;14.30;87.40;;;;;;5013468;28;20210;-94
2022/11/06 01:55:44;;;;;;;19.33;7.00;;;14.30;87.20;;;;;;5025125;28;20234;-92
2022/11/06 01:58:19;;;;;;;13.40;6.00;;;14.20;87.40;;;;;;5017178;28;20231;-95
2022/11/06 02:00:54;;;;;;;15.20;6.00;;;14.20;87.40;;;;;;5013763;28;20216;-95
2022/11/06 02:03:30;;;;;;;12.23;5.37;;;14.20;87.70;;;;;;5018575;28;20200;-95
2022/11/06 02:06:01;;;;;;;14.67;5.63;;;14.20;87.40;;;;;;5021139;28;20617;-93
2022/11/06 02:08:34;;;;;;;10.40;4.77;;;14.20;87.70;;;;;;5023749;28;20203;-96
2022/11/06 02:11:07;;;;;;;17.30;6.53;;;14.20;87.80;;;;;;5016324;28;20557;-93
2022/11/06 02:13:53;;;;;;;11.73;4.97;;;14.20;87.70;;;;;;5020708;28;20210;-95
2022/11/06 02:16:31;;;;;;;16.43;6.33;;;14.20;88.00;;;;;;5016435;28;20226;-93
2022/11/06 02:19:19;;;;;;;17.97;6.67;;;14.30;88.00;;;;;;5017526;28;20204;-96
2022/11/06 02:22:17;;;;;;;10.87;5.27;;;14.20;88.30;;;;;;5019499;28;20238;-95
2022/11/06 02:25:11;;;;;;;11.13;4.83;;;14.20;88.00;;;;;;5015224;28;20264;-95
2022/11/06 02:27:43;;;;;;;14.03;6.07;;;14.20;88.20;;;;;;5016828;28;20211;-93
2022/11/06 02:33:09;;;;;;;17.30;7.00;;;14.20;87.60;;;;;;5014693;28;20238;-96
2022/11/06 02:35:46;;;;;;;13.67;5.90;;;14.30;88.00;;;;;;4999574;28;20222;-94
2022/11/06 02:38:28;;;;;;;13.33;5.37;;;14.20;87.90;;;;;;5013403;28;20254;-94
2022/11/06 02:41:00;;;;;;;13.23;5.93;;;14.20;88.00;;;;;;5002382;28;20694;-94
2022/11/06 02:43:41;;;;;;;15.17;5.23;;;14.30;88.00;;;;;;5006183;28;20224;-92
2022/11/06 02:46:25;;;;;;;12.57;5.13;;;14.20;88.40;;;;;;5018004;28;20634;-95
2022/11/06 02:49:04;;;;;;;15.30;5.70;;;14.20;88.40;;;;;;5020035;28;20277;-92
2022/11/06 02:51:44;;;;;;;9.23;5.00;;;14.20;88.40;;;;;;5018616;28;20203;-92
2022/11/06 02:54:20;;;;;;;10.37;5.97;;;14.20;88.40;;;;;;5019078;28;20227;-95
2022/11/06 02:56:56;;;;;;;10.17;5.40;;;14.20;88.30;;;;;;5018856;28;20206;-95
2022/11/06 02:59:31;;;;;;;13.90;5.43;;;14.20;88.60;;;;;;5020332;28;20219;-93
2022/11/06 03:04:50;;;;;;;11.07;5.47;;;14.20;88.60;;;;;;5013282;28;20255;-93
2022/11/06 03:07:34;;;;;;;14.33;5.67;;;14.20;88.60;;;;;;5017978;28;20237;-94
2022/11/06 03:10:06;;;;;;;13.07;5.87;;;14.20;89.00;;;;;;5020382;28;20660;-95
2022/11/06 03:12:43;;;;;;;14.20;5.70;;;14.20;88.70;;;;;;5001268;28;20205;-92
2022/11/06 03:15:28;;;;;;;22.77;7.83;;;14.20;89.30;;;;;;5016782;28;20213;-95
2022/11/06 03:18:06;;;;;;;11.77;5.47;;;14.20;89.50;;;;;;5017578;28;20848;-93
2022/11/06 03:20:38;;;;;;;10.23;5.40;;;14.20;89.50;;;;;;5022294;28;20201;-95
2022/11/06 03:23:32;;;;;;;16.43;5.50;;;14.20;89.90;;;;;;5013275;28;20279;-93
2022/11/06 03:26:15;;;;;;;9.37;4.93;;;14.20;89.90;;;;;;5017448;28;20207;-93
2022/11/06 03:29:02;;;;;;;11.73;4.57;;;14.10;90.20;;;;;;5021916;28;20211;-95
2022/11/06 03:31:44;;;;;;;13.00;5.53;;;14.20;89.80;;;;;;5000480;28;20203;-96
2022/11/06 03:34:16;;;;;;;20.20;6.93;;;14.20;89.90;;;;;;5007104;28;20207;-96
2022/11/06 03:36:47;;;;;;;14.70;4.67;;;14.20;89.90;;;;;;5025632;28;20232;-92
2022/11/06 03:39:19;;;;;;;10.97;4.60;;;14.20;90.00;;;;;;5021215;28;20265;-92
2022/11/06 03:41:53;;;;;;;15.00;5.33;;;14.20;90.00;;;;;;5018323;28;20199;-93
2022/11/06 03:44:27;;;;;;;12.33;5.10;;;14.20;90.20;;;;;;5019301;28;20647;-96
2022/11/06 03:47:23;;;;;;;9.67;4.77;;;14.20;90.20;;;;;;5017201;28;20211;-93
2022/11/06 03:50:05;;;;;;;9.47;4.40;;;14.20;90.30;;;;;;5012684;28;20205;-94
2022/11/06 03:52:39;;;;;;;12.33;4.90;;;14.20;90.30;;;;;;5015388;28;20554;-93
2022/11/06 03:55:28;;;;;;;14.40;5.57;;;14.20;90.20;;;;;;5014784;28;20223;-95
2022/11/06 03:58:02;;;;;;;14.70;5.13;;;14.20;90.10;;;;;;5009310;28;20230;-92
2022/11/06 04:00:35;;;;;;;11.67;4.87;;;14.30;90.20;;;;;;5011139;28;20257;-95
2022/11/06 04:03:25;;;;;;;15.13;5.67;;;14.30;90.10;;;;;;5010464;28;20199;-92
2022/11/06 04:05:56;;;;;;;10.60;4.33;;;14.30;90.10;;;;;;5015706;28;20215;-93
2022/11/06 04:14:08;;;;;;;13.17;4.30;;;14.30;90.10;;;;;;5007870;28;20212;-94
2022/11/06 04:16:48;;;;;;;9.57;4.27;;;14.30;90.00;;;;;;5017252;28;20197;-95
2022/11/06 04:19:24;;;;;;;12.73;5.40;;;14.40;90.00;;;;;;5018381;28;20258;-93
2022/11/06 04:22:13;;;;;;;9.10;4.03;;;14.40;89.90;;;;;;5017644;28;20236;-94
2022/11/06 04:28:07;;;;;;;13.73;4.83;;;14.40;89.50;;;;;;5016084;28;20215;-96
2022/11/06 04:30:39;;;;;;;11.40;4.23;;;14.50;89.90;;;;;;5021237;28;20209;-94
2022/11/06 04:33:15;;;;;;;11.67;4.93;;;14.50;89.70;;;;;;5008641;28;20256;-94
2022/11/06 04:35:54;;;;;;;11.40;4.67;;;14.50;90.30;;;;;;5020936;28;20506;-94
2022/11/06 04:38:39;;;;;;;12.83;4.77;;;14.50;89.90;;;;;;5019702;28;20277;-94
2022/11/06 04:41:23;;;;;;;10.17;3.77;;;14.50;89.90;;;;;;5020835;28;20236;-95
2022/11/06 04:44:02;;;;;;;13.60;4.80;;;14.50;89.90;;;;;;5004537;28;20212;-92
2022/11/06 04:46:33;;;;;;;12.90;4.70;;;14.60;90.00;;;;;;5016923;28;20218;-93
2022/11/06 04:49:05;;;;;;;10.23;4.37;;;14.60;89.90;;;;;;5016428;28;20811;-93
2022/11/06 04:51:40;;;;;;;17.90;5.63;;;14.50;89.40;;;;;;5011937;28;20608;-92
2022/11/06 04:54:10;;;;;;;14.00;5.17;;;14.60;89.20;;;;;;5020261;28;20539;-93
2022/11/06 04:56:39;;;;;;;12.60;4.53;;;14.60;89.10;;;;;;5009316;28;20207;-93
2022/11/06 04:59:07;;;;;;;14.20;5.07;;;14.60;88.80;;;;;;5010606;28;20834;-93
2022/11/06 05:01:34;;;;;;;10.70;4.63;;;14.70;89.10;;;;;;4997525;28;20209;-93
2022/11/06 05:04:05;;;;;;;14.70;5.27;;;14.70;89.00;;;;;;5009811;28;20200;-93
2022/11/06 05:06:38;;;;;;;16.03;5.30;;;14.70;89.10;;;;;;5011714;28;20227;-93
2022/11/06 05:09:06;;;;;;;15.83;5.43;;;14.70;89.10;;;;;;5017546;28;20202;-92
2022/11/06 05:11:33;;;;;;;7.80;3.60;;;14.70;88.70;;;;;;5019875;28;20751;-93
2022/11/06 05:14:01;;;;;;;15.47;4.70;;;14.70;88.60;;;;;;5015086;28;20239;-93
2022/11/06 05:16:28;;;;;;;13.83;5.00;;;14.70;88.70;;;;;;5018927;28;20207;-92
2022/11/06 05:19:00;;;;;;;11.47;4.03;;;14.70;88.50;;;;;;5019367;28;20864;-95
2022/11/06 05:24:17;;;;;;;13.27;4.63;;;14.70;88.50;;;;;;5006759;28;20216;-94
2022/11/06 05:26:47;;;;;;;11.50;4.80;;;14.70;88.20;;;;;;5018207;28;20208;-93
2022/11/06 05:29:19;;;;;;;12.50;3.97;;;14.70;88.10;;;;;;5023355;28;20221;-95
2022/11/06 05:31:49;;;;;;;8.67;3.67;;;14.70;88.00;;;;;;5019378;28;20201;-95
2022/11/06 05:34:22;;;;;;;13.80;3.80;;;14.70;87.80;;;;;;5024402;28;20232;-94
2022/11/06 05:36:55;;;;;;;13.57;3.97;;;14.70;87.60;;;;;;5020911;28;20297;-96
2022/11/06 05:39:27;;;;;;;11.40;4.50;;;14.70;87.70;;;;;;5024711;28;20225;-94
2022/11/06 05:42:10;;;;;;;11.80;3.50;;;14.80;87.20;;;;;;5026000;28;20205;-94
2022/11/06 05:44:38;;;;;;;11.87;3.80;;;14.70;87.50;;;;;;5020869;28;20196;-96
2022/11/06 05:47:07;;;;;;;13.27;4.37;;;14.80;87.40;;;;;;5019905;28;20255;-93
2022/11/06 05:49:36;;;;;;;11.40;4.00;;;14.80;87.50;;;;;;5020373;28;20217;-93
2022/11/06 05:52:06;;;;;;;8.97;3.10;;;14.80;87.30;;;;;;5012579;28;20203;-92
2022/11/06 05:54:44;;;;;;;10.40;3.30;;;14.80;87.30;;;;;;5005308;28;20274;-95
2022/11/06 05:57:18;;;;;;;13.93;4.47;;;14.80;87.60;;;;;;5018955;28;20208;-95
2022/11/06 05:59:56;;;;;;;11.23;3.97;;;14.80;87.50;;;;;;5020807;28;20270;-95
2022/11/06 06:02:23;;;;;;;9.67;3.57;;;14.80;87.40;;;;;;5019103;28;20865;-95
2022/11/06 06:05:02;;;;;;;10.17;3.87;;;14.80;87.40;;;;;;5018481;28;20217;-94
2022/11/06 06:07:56;;;;;;;13.30;4.80;;;14.80;87.60;;;;;;5013548;28;20640;-93
2022/11/06 06:10:29;;;;;;;10.03;3.60;;;14.80;87.30;;;;;;5020497;28;20200;-96
2022/11/06 06:13:01;;;;;;;10.23;3.87;;;14.80;87.00;;;;;;5008391;28;20222;-93
2022/11/06 06:15:41;;;;;;;9.57;2.90;;;14.80;87.30;;;;;;5019505;28;20649;-95
2022/11/06 06:18:10;;;;;;;12.20;3.80;;;14.80;87.30;;;;;;5006220;28;20234;-93
2022/11/06 06:20:43;;;;;;;13.90;4.63;;;14.70;87.30;;;;;;5015472;28;20204;-92
2022/11/06 06:23:15;;;;;;;9.73;3.30;;;14.80;87.60;;;;;;5023752;28;20232;-95
2022/11/06 06:25:46;;;;;;;8.27;3.20;;;14.80;87.80;;;;;;5018862;28;20205;-92
2022/11/06 06:28:30;;;;;;;11.40;3.50;;;14.70;87.80;;;;;;5019025;28;20247;-94
2022/11/06 06:31:03;;;;;;;12.17;4.30;;;14.70;87.60;;;;;;4995480;28;20215;-94
2022/11/06 06:33:33;;;;;;;16.67;5.37;;;14.70;87.60;;;;;;5014022;28;20643;-92
2022/11/06 06:36:05;;;;;;;10.00;4.00;;;14.70;87.20;;;;;;5008640;28;20204;-92
2022/11/06 06:38:37;;;;;;;14.00;5.37;;;14.70;87.50;;;;;;5010247;28;20283;-96
2022/11/06 06:41:07;;;;;;;13.23;3.80;;;14.70;87.40;;;;;;5019323;28;20194;-92
2022/11/06 06:43:35;;;;;;;15.50;4.37;;;14.60;86.90;;;;;;5018150;28;20769;-92
2022/11/06 06:46:07;;;;;;;15.57;4.80;;;14.60;87.00;;;;;;5019425;28;20665;-93
2022/11/06 06:48:36;;;;;;;12.47;4.17;;;14.60;87.10;;;;;;5012938;28;20216;-92
2022/11/06 06:51:06;;;;;;;14.27;4.70;;;14.60;87.00;;;;;;5002932;28;20200;-92
2022/11/06 06:53:36;;;;;;;8.00;2.97;;;14.60;87.10;;;;;;5022960;28;20227;-92
2022/11/06 06:56:10;;;;;;;12.80;4.00;;;14.60;87.30;;;;;;5029986;28;20212;-91
2022/11/06 06:58:41;;;;;;;8.67;3.30;;;14.60;87.50;;;;;;5028077;28;20227;-94
2022/11/06 07:01:13;;;;;;;9.17;3.00;;;14.60;87.60;;;;;;5031388;28;20643;-90
2022/11/06 07:03:42;;;;;;;9.47;3.37;;;14.50;87.80;;;;;;5030188;28;20220;-90
2022/11/06 07:06:10;;;;;;;8.63;2.97;;;14.50;87.90;;;;;;5026990;28;20205;-91
2022/11/06 07:08:41;;;;;;;11.73;3.93;;;14.50;88.30;;;;;;5022678;28;20210;-90
2022/11/06 07:11:11;;;;;;;9.40;3.43;;;14.40;88.30;;;;;;5026035;28;20243;-90
2022/11/06 07:13:48;;;;;;;12.50;3.90;;;14.40;88.70;;;;;;5020313;28;20234;-92
2022/11/06 07:16:16;;;;;;;12.93;4.23;;;14.40;88.90;;;;;;5015076;28;20203;-89
2022/11/06 07:18:48;;;;;;;14.13;3.30;;;14.40;89.00;;;;;;5025618;28;20250;-91
2022/11/06 07:21:23;;;;;;;10.70;3.60;;;14.40;89.10;;;;;;5032659;28;20239;-91
2022/11/06 07:23:52;;;;;;;8.33;3.13;;;14.40;89.10;;;;;;5029692;28;20227;-90
2022/11/06 07:29:35;;;;;;;11.53;3.83;;;14.40;89.30;;;;;;5028186;28;20213;-91
2022/11/06 07:32:08;;;;;;;10.27;3.40;;;14.40;88.80;;;;;;5022809;28;20241;-90
2022/11/06 07:34:37;;;;;;;10.07;3.80;;;14.40;88.90;;;;;;5025333;28;20295;-90
2022/11/06 07:37:07;;;;;;;6.63;2.60;;;14.40;89.10;;;;;;5030910;28;20193;-91
2022/11/06 07:39:40;;;;;;;8.80;3.07;;;14.40;89.20;;;;;;5022867;28;20245;-91
2022/11/06 07:42:17;;;;;;;7.73;3.00;;;14.40;89.40;;;;;;5031681;28;20223;-90
2022/11/06 07:44:47;;;;;;;6.20;2.17;;;14.40;89.70;;;;;;5038525;28;20946;-90
2022/11/06 07:47:16;;;;;;;13.93;4.70;;;14.40;89.70;;;;;;5030981;28;20207;-92
2022/11/06 07:49:45;;;;;;;12.20;4.40;;;14.50;89.80;;;;;;5017261;28;20694;-91
2022/11/06 07:52:13;;;;;;;16.90;5.53;;;14.40;89.80;;;;;;5026346;28;20737;-93
2022/11/06 07:54:42;;;;;;;14.87;4.73;;;14.40;90.00;;;;;;5020057;28;20222;-95
2022/11/06 07:57:10;;;;;;;13.77;5.43;;;14.50;90.10;;;;;;5022571;28;20254;-90
2022/11/06 07:59:38;;;;;;;10.10;4.00;;;14.50;90.20;;;;;;5016585;28;20223;-93
2022/11/06 08:02:11;;;;;;;15.50;4.80;;;14.50;90.40;;;;;;5015338;28;20318;-91
2022/11/06 08:04:39;;;;;;;20.20;6.07;;;14.40;90.70;;;;;;5007526;28;20342;-92
2022/11/06 08:07:10;;;;;;;12.13;3.97;;;14.40;90.50;;;;;;5018048;28;20209;-92
2022/11/06 08:09:38;;;;;;;18.00;5.83;;;14.40;90.90;;;;;;5015279;28;20225;-91
2022/11/06 08:12:07;;;;;;;15.70;4.70;;;14.40;90.80;;;;;;5013763;28;20213;-93
2022/11/06 08:14:35;;;;;;;16.03;5.77;;;14.40;90.90;;;;;;5024292;28;20211;-93
2022/11/06 08:17:02;;;;;;;13.97;4.90;;;14.40;91.00;;;;;;5035534;28;20212;-91
2022/11/06 08:19:32;;;;;;;14.10;4.87;;;14.30;91.00;;;;;;5029247;28;20251;-92
2022/11/06 08:22:01;;;;;;;9.77;3.57;;;14.30;91.10;;;;;;5015035;28;20221;-93
2022/11/06 08:24:29;;;;;;;12.13;3.70;;;14.30;91.30;;;;;;5027236;28;20203;-91
2022/11/06 08:26:58;;;;;;;8.33;3.03;;;14.30;91.20;;;;;;5039331;28;20208;-90
2022/11/06 08:29:25;;;;;;;7.47;2.60;;;14.30;91.40;;;;;;5038460;28;20224;-91
2022/11/06 08:32:01;;;;;;;16.30;4.90;;;14.30;91.30;;;;;;5040163;28;20208;-91
2022/11/06 08:34:28;;;;;;;10.80;3.73;;;14.20;91.70;;;;;;5030224;28;20199;-91
2022/11/06 08:37:02;;;;;;;11.97;3.97;;;14.20;91.60;;;;;;5037328;28;20186;-90
2022/11/06 08:39:32;;;;;;;14.50;4.97;;;14.20;92.00;;;;;;5038425;28;20266;-91
2022/11/06 08:42:08;;;;;;;10.43;2.90;;;14.10;91.90;;;;;;5035485;28;20184;-92
2022/11/06 08:44:37;;;;;;;6.40;3.10;;;14.10;92.00;;;;;;5037661;28;20262;-90
2022/11/06 08:47:07;;;;;;;6.67;2.53;;;14.10;92.00;;;;;;5023718;28;20205;-90
2022/11/06 08:49:41;;;;;;;13.03;4.33;;;14.10;92.10;;;;;;5015083;28;20211;-89
2022/11/06 08:52:09;;;;;;;13.03;4.10;;;14.10;92.10;;;;;;5015175;28;20694;-90
2022/11/06 08:54:39;;;;;;;16.80;5.57;;;14.10;92.30;;;;;;5009748;28;20256;-90
2022/11/06 08:57:07;;;;;;;9.43;4.07;;;14.10;92.30;;;;;;5010461;28;20222;-90
2022/11/06 08:59:34;;;;;;;15.97;4.83;;;14.10;92.20;;;;;;5008008;28;20230;-90
2022/11/06 09:02:04;;;;;;;20.37;6.13;;;14.10;92.40;;;;;;5012286;28;20286;-93
2022/11/06 09:04:31;;;;;;;16.57;5.20;;;14.10;92.30;;;;;;5012091;28;20208;-91
2022/11/06 09:07:00;;;;;;;15.07;4.97;;;14.10;92.20;;;;;;5012937;28;20228;-91
2022/11/06 09:09:30;;;;;;;13.97;4.80;;;14.10;92.40;;;;;;5013457;28;20243;-90
2022/11/06 09:11:58;;;;;;;13.70;4.53;;;14.20;92.60;;;;;;5011734;28;20223;-90
2022/11/06 09:14:25;;;;;;;13.60;4.80;;;14.10;92.70;;;;;;5007285;28;20600;-89
2022/11/06 09:16:52;;;;;;;21.93;6.03;;;14.10;92.70;;;;;;5005215;28;20227;-91
2022/11/06 09:19:20;;;;;;;17.00;5.43;;;14.10;92.70;;;;;;5002262;28;20259;-90
2022/11/06 09:21:47;;;;;;;23.10;7.00;;;14.10;92.80;;;;;;5000287;28;20715;-90
2022/11/06 09:24:14;;;;;;;11.00;3.70;;;14.10;93.10;;;;;;5004172;28;20219;-90
2022/11/06 09:26:42;;;;;;;25.03;7.07;;;14.20;92.80;;;;;;4993178;28;20262;-90
2022/11/06 09:29:10;;;;;;;20.07;6.20;;;14.10;93.00;;;;;;4998272;28;20208;-92
2022/11/06 09:31:37;;;;;;;13.43;4.77;;;14.20;92.90;;;;;;5007870;28;20683;-90
2022/11/06 09:34:05;;;;;;;15.70;4.93;;;14.20;92.90;;;;;;5000184;28;20239;-91
2022/11/06 09:36:32;;;;;;;14.97;5.47;;;14.10;93.10;;;;;;5008868;28;20659;-89
2022/11/06 09:38:59;;;;;;;24.10;6.70;;;14.20;92.90;;;;;;5000363;28;20968;-89
2022/11/06 09:41:39;;;;;;;18.50;6.10;;;14.10;92.90;;;;;;5002082;28;20204;-90
2022/11/06 09:44:21;;;;;;;18.57;6.00;;;14.10;93.60;;;;;;5004625;28;20289;-92
2022/11/06 09:46:48;;;;;;;17.50;4.80;;;14.10;93.20;;;;;;5008195;28;20267;-91
2022/11/06 09:49:22;;;;;;;12.20;4.27;;;14.10;93.20;;;;;;5006259;28;20207;-92
2022/11/06 09:51:56;;;;;;;15.13;4.90;;;14.10;93.70;;;;;;5007136;28;20642;-91
2022/11/06 09:54:29;;;;;;;13.30;4.00;;;14.10;93.60;;;;;;5006185;28;20202;-91
2022/11/06 09:57:04;;;;;;;14.47;3.70;;;14.10;93.60;;;;;;5008730;28;20204;-89
2022/11/06 09:59:35;;;;;;;19.87;6.23;;;14.10;93.50;;;;;;4998534;28;20263;-91
2022/11/06 10:02:19;;;;;;;21.57;6.90;;;14.10;93.70;;;;;;4998520;28;20234;-91
2022/11/06 10:04:52;;;;;;;19.70;6.33;;;14.10;93.80;;;;;;5001384;28;20341;-91
2022/11/06 10:07:26;;;;;;;19.93;6.67;;;14.00;93.60;;;;;;5004747;28;20277;-91
2022/11/06 10:09:54;;;;;;;19.70;5.80;;;14.10;93.50;;;;;;4999958;28;20319;-90
2022/11/06 10:12:30;;;;;;;14.47;4.37;;;14.10;93.50;;;;;;5002886;28;21104;-90
2022/11/06 10:15:08;;;;;;;15.57;4.93;;;14.10;93.60;;;;;;5002788;28;20209;-90
2022/11/06 10:17:47;;;;;;;18.13;5.47;;;14.10;93.80;;;;;;4998615;28;20206;-92
2022/11/06 10:20:20;;;;;;;13.57;4.73;;;14.00;93.50;;;;;;5009518;28;20245;-91
2022/11/06 10:22:56;;;;;;;19.47;6.10;;;14.00;93.60;;;;;;5006330;28;20212;-92
2022/11/06 10:25:30;;;;;;;25.33;7.73;;;14.00;93.70;;;;;;5003633;28;20201;-93
2022/11/06 10:28:02;;;;;;;17.63;5.20;;;14.00;93.50;;;;;;5002314;28;21002;-92
2022/11/06 10:30:41;;;;;;;13.97;4.43;;;14.00;93.70;;;;;;5005979;28;20203;-91
2022/11/06 10:33:23;;;;;;;14.53;4.30;;;14.00;93.60;;;;;;5003125;28;20215;-92
2022/11/06 10:35:59;;;;;;;12.93;4.37;;;14.00;93.70;;;;;;5007707;28;20213;-92
2022/11/06 10:38:30;;;;;;;11.60;4.00;;;13.90;93.60;;;;;;5006433;28;20212;-91
2022/11/06 10:40:58;;;;;;;11.70;4.20;;;13.90;93.60;;;;;;5007604;28;20234;-92
2022/11/06 10:43:34;;;;;;;21.40;5.93;;;13.90;93.60;;;;;;5007467;28;20637;-92
2022/11/06 10:46:12;;;;;;;10.93;4.10;;;13.90;93.80;;;;;;5010840;28;20297;-92
2022/11/06 10:48:44;;;;;;;11.40;4.23;;;13.90;93.90;;;;;;5011229;28;20264;-92
2022/11/06 10:51:33;;;;;;;23.53;6.90;;;13.80;93.80;;;;;;5007727;28;20211;-92
2022/11/06 10:54:11;;;;;;;18.03;5.83;;;13.80;94.00;;;;;;4997558;28;20587;-92
2022/11/06 10:56:50;;;;;;;22.37;5.53;;;13.80;94.00;;;;;;4999051;28;20886;-93
2022/11/06 10:59:18;;;;;;;18.50;5.90;;;13.80;93.90;;;;;;5000625;28;20313;-93
2022/11/06 11:01:48;;;;;;;17.60;5.33;;;13.90;93.70;;;;;;5005138;28;20240;-91
2022/11/06 11:04:15;;;;;;;14.73;4.57;;;13.80;94.00;;;;;;5010141;28;20246;-92
2022/11/06 11:06:43;;;;;;;19.30;5.40;;;13.80;93.80;;;;;;5008388;28;20629;-91
2022/11/06 11:09:32;;;;;;;11.07;4.23;;;13.80;93.70;;;;;;5013161;28;20201;-92
2022/11/06 11:12:00;;;;;;;21.17;5.77;;;13.90;93.80;;;;;;4993334;28;20212;-92
2022/11/06 11:14:30;;;;;;;16.27;5.47;;;13.90;93.60;;;;;;5000437;28;20206;-92
2022/11/06 11:17:07;;;;;;;17.47;5.43;;;13.80;93.60;;;;;;5002469;28;20230;-91
2022/11/06 11:19:42;;;;;;;18.80;5.60;;;13.80;93.70;;;;;;5002999;28;20344;-93
2022/11/06 11:22:19;;;;;;;20.30;6.17;;;13.90;93.60;;;;;;5002664;28;20784;-92
2022/11/06 11:25:00;;;;;;;14.30;4.70;;;13.90;93.70;;;;;;5008508;28;20568;-91
2022/11/06 11:27:34;;;;;;;15.87;5.33;;;13.90;93.70;;;;;;5009068;28;20262;-91
2022/11/06 11:30:04;;;;;;;13.40;4.43;;;13.90;93.60;;;;;;5002310;28;20678;-93
2022/11/06 11:32:33;;;;;;;14.27;4.00;;;13.90;93.60;;;;;;5009893;28;20996;-94
2022/11/06 11:35:02;;;;;;;14.17;4.00;;;13.90;93.60;;;;;;5014985;28;20265;-92
2022/11/06 11:37:31;;;;;;;14.90;4.83;;;13.90;93.60;;;;;;5012192;28;20202;-91
2022/11/06 11:40:21;;;;;;;20.43;5.90;;;13.90;93.60;;;;;;5005895;28;20238;-93
2022/11/06 11:42:52;;;;;;;13.93;4.20;;;13.90;93.60;;;;;;5001248;28;20259;-92
2022/11/06 11:45:20;;;;;;;16.77;4.77;;;13.90;93.50;;;;;;5005890;28;20212;-94
2022/11/06 11:47:51;;;;;;;12.87;3.90;;;13.90;93.40;;;;;;5007958;28;20238;-92
2022/11/06 11:50:30;;;;;;;13.30;4.53;;;13.90;93.60;;;;;;5003346;28;20652;-93
2022/11/06 11:53:06;;;;;;;9.73;3.83;;;13.90;93.40;;;;;;5009790;28;20201;-92
2022/11/06 11:55:43;;;;;;;17.23;5.47;;;13.90;93.40;;;;;;5005663;28;20298;-93
2022/11/06 11:58:26;;;;;;;12.33;4.17;;;13.90;93.50;;;;;;5007091;28;20644;-91
2022/11/06 12:01:01;;;;;;;9.53;3.30;;;13.80;93.60;;;;;;5012576;28;20227;-93
2022/11/06 12:03:36;;;;;;;18.23;5.77;;;13.80;93.50;;;;;;5006982;28;20212;-94
2022/11/06 12:06:08;;;;;;;13.63;4.27;;;13.80;93.60;;;;;;4999194;28;20298;-92
2022/11/06 12:08:36;;;;;;;17.30;5.27;;;13.80;93.40;;;;;;5000474;28;20209;-92
2022/11/06 12:11:08;;;;;;;18.23;5.57;;;13.80;93.40;;;;;;5006993;28;20238;-92
2022/11/06 12:13:37;;;;;;;19.37;4.93;;;13.80;93.60;;;;;;5007451;28;20219;-93
2022/11/06 12:16:08;;;;;;;17.00;5.33;;;13.80;93.60;;;;;;5011040;28;20550;-93
2022/11/06 12:18:48;;;;;;;18.00;5.90;;;13.70;93.60;;;;;;5004442;28;20227;-92
2022/11/06 12:21:22;;;;;;;14.87;4.40;;;13.70;93.50;;;;;;5007380;28;20238;-92
2022/11/06 12:24:06;;;;;;;16.67;4.67;;;13.60;93.40;;;;;;5012674;28;20207;-93
2022/11/06 12:26:44;;;;;;;11.07;3.53;;;13.70;93.50;;;;;;5009607;28;20234;-93
2022/11/06 12:29:16;;;;;;;14.27;4.70;;;13.60;93.40;;;;;;5022551;28;20384;-93
2022/11/06 12:31:55;;;;;;;10.07;3.40;;;13.60;93.30;;;;;;5026067;28;20220;-93
2022/11/06 12:34:35;;;;;;;8.37;3.33;;;13.50;93.40;;;;;;5015048;28;20262;-94
2022/11/06 12:37:18;;;;;;;8.67;3.07;;;13.50;93.50;;;;;;5015640;28;20201;-95
2022/11/06 12:39:52;;;;;;;14.07;4.33;;;13.50;93.50;;;;;;5014152;28;20209;-94
2022/11/06 12:42:22;;;;;;;13.83;4.17;;;13.50;93.40;;;;;;5013768;28;20304;-95
2022/11/06 12:44:50;;;;;;;14.50;4.30;;;13.50;93.30;;;;;;5015083;28;20255;-93
2022/11/06 12:47:31;;;;;;;11.63;3.83;;;13.50;93.20;;;;;;5011922;28;20203;-93
2022/11/06 12:50:32;;;;;;;12.30;3.93;;;13.50;93.30;;;;;;5013032;28;20237;-94
2022/11/06 12:53:21;;;;;;;12.07;3.90;;;13.50;93.20;;;;;;5015526;28;20560;-93
2022/11/06 12:55:59;;;;;;;16.13;5.03;;;13.50;93.00;;;;;;5012513;28;20653;-93
2022/11/06 12:58:50;;;;;;;17.30;5.50;;;13.40;92.90;;;;;;5011458;28;20222;-93
2022/11/06 13:01:34;;;;;;;13.63;3.87;;;13.40;93.20;;;;;;5010112;28;20728;-93
2022/11/06 13:04:21;;;;;;;16.67;4.87;;;13.30;93.20;;;;;;4999145;28;20731;-93
2022/11/06 13:07:36;;;;;;;11.73;3.97;;;13.30;93.20;;;;;;5013222;28;20247;-93
2022/11/06 13:10:24;;;;;;;9.47;3.77;;;13.30;93.50;;;;;;4989239;28;20665;-92
2022/11/06 13:13:00;;;;;;;13.17;4.07;;;13.30;93.40;;;;;;5024231;28;20729;-95
2022/11/06 13:15:32;;;;;;;13.60;4.33;;;13.30;93.60;;;;;;5010802;28;20245;-93
2022/11/06 13:18:09;;;;;;;14.57;3.77;;;13.20;93.50;;;;;;5009510;28;20349;-93
2022/11/06 13:20:46;;;;;;;13.30;4.50;;;13.30;93.60;;;;;;5011213;28;20291;-91
2022/11/06 13:23:23;;;;;;;17.37;5.77;;;13.20;93.60;;;;;;5014238;28;20201;-93
2022/11/06 13:26:01;;;;;;;13.67;4.53;;;13.20;93.70;;;;;;5007993;28;20267;-93
2022/11/06 13:28:38;;;;;;;13.80;4.70;;;13.20;93.90;;;;;;5017386;28;20241;-94
2022/11/06 13:31:09;;;;;;;10.73;3.30;;;13.20;93.90;;;;;;5014826;28;20979;-94
2022/11/06 13:33:47;;;;;;;11.27;4.37;;;13.20;93.60;;;;;;4995300;28;20244;-94
2022/11/06 13:36:17;;;;;;;11.37;4.03;;;13.20;93.60;;;;;;5007765;28;20211;-93